Lyman, Washington
Current Conditions -  °F | °C
As of 1:15 PM on Tuesday 21 Oct 2014 (Local Time) from KAWO Reporting Station
Overcast Overcast  
Wind Chill: 16°   Ceiling: 4100
Heat Index: 16°   Visibility: 10mi
Dew Point:   Wind: 16mph
Humidity: 63%   Direction: 180°S
Pressure: 29.91"   Gusts: 21mph
Location:  48.53°N, 122.06°W
Report Text: KAWO 212015Z AUTO 18014G18KT 10SM SCT033 BKN041 OVC110 16/09 A2991 RMK AO1
Loading
Personal Weather Stations






























Interactive Weather Map
Tropical Storm Tracking
New forecast layout! Learn more

10-Day Weather Forecast

Advertisements
Track Severe Weather on mobile